Terminal Aerodrome Forecast
Issued by NWS Sterling, VA

Current Version | Previous Version | Graphics & Text | Print | Product List | Glossary On
Versions: 1 2 3 4 5 6 7 8 9 10 11 12 13 14 15 16 17 18 19 20 21 22 23 24
000
FTUS41 KLWX 291700 RRA
TAFIAD
TAF
KIAD 291742Z 2918/3024 33009KT P6SM -SHRA OVC040
      TEMPO 2918/2920 1SM +RA BR BKN025
     FM292100 33006KT P6SM BKN100
     FM292300 30005KT P6SM FEW250
     FM301500 33009KT P6SM SCT050=

USA.gov is the U.S. government's official web portal to all federal, state and local government web resources and services.